sensor_id;sensor_type;location;lat;lon;timestamp;temperature;humidity
57242;DHT22;43095;53.302;5.786;2022-09-09T00:00:34;14.30;99.90
57242;DHT22;43095;53.302;5.786;2022-09-09T00:03:43;14.30;99.90
57242;DHT22;43095;53.302;5.786;2022-09-09T00:06:34;14.30;99.90
57242;DHT22;43095;53.302;5.786;2022-09-09T00:09:25;14.20;99.90
57242;DHT22;43095;53.302;5.786;2022-09-09T00:15:20;14.20;99.90
57242;DHT22;43095;53.302;5.786;2022-09-09T00:18:27;14.20;99.90
57242;DHT22;43095;53.302;5.786;2022-09-09T00:21:15;14.10;99.90
57242;DHT22;43095;53.302;5.786;2022-09-09T00:24:37;14.00;99.90
57242;DHT22;43095;53.302;5.786;2022-09-09T00:27:42;14.00;99.90
57242;DHT22;43095;53.302;5.786;2022-09-09T00:30:34;14.00;99.90
57242;DHT22;43095;53.302;5.786;2022-09-09T00:33:23;14.00;99.90
57242;DHT22;43095;53.302;5.786;2022-09-09T00:36:14;14.00;99.90
57242;DHT22;43095;53.302;5.786;2022-09-09T00:39:02;14.00;99.90
57242;DHT22;43095;53.302;5.786;2022-09-09T00:44:36;14.10;99.90
57242;DHT22;43095;53.302;5.786;2022-09-09T00:47:39;14.10;99.90
57242;DHT22;43095;53.302;5.786;2022-09-09T00:50:49;14.10;99.90
57242;DHT22;43095;53.302;5.786;2022-09-09T00:53:59;14.00;99.90
57242;DHT22;43095;53.302;5.786;2022-09-09T00:57:01;14.00;99.90
57242;DHT22;43095;53.302;5.786;2022-09-09T00:59:52;14.00;99.90
57242;DHT22;43095;53.302;5.786;2022-09-09T01:15:07;13.90;99.90
57242;DHT22;43095;53.302;5.786;2022-09-09T01:18:10;13.80;99.90
57242;DHT22;43095;53.302;5.786;2022-09-09T01:27:21;13.80;99.90
57242;DHT22;43095;53.302;5.786;2022-09-09T01:30:13;13.70;99.90
57242;DHT22;43095;53.302;5.786;2022-09-09T01:33:00;13.80;99.90
57242;DHT22;43095;53.302;5.786;2022-09-09T01:38:37;13.70;99.90
57242;DHT22;43095;53.302;5.786;2022-09-09T01:41:23;13.70;99.90
57242;DHT22;43095;53.302;5.786;2022-09-09T01:44:25;13.70;99.90
57242;DHT22;43095;53.302;5.786;2022-09-09T01:47:11;13.70;99.90
57242;DHT22;43095;53.302;5.786;2022-09-09T01:50:23;13.70;99.90
57242;DHT22;43095;53.302;5.786;2022-09-09T01:53:11;13.70;99.90
57242;DHT22;43095;53.302;5.786;2022-09-09T02:02:17;13.70;99.90
57242;DHT22;43095;53.302;5.786;2022-09-09T02:08:36;13.60;99.90
57242;DHT22;43095;53.302;5.786;2022-09-09T02:11:28;13.60;99.90
57242;DHT22;43095;53.302;5.786;2022-09-09T02:14:35;13.60;99.90
57242;DHT22;43095;53.302;5.786;2022-09-09T02:17:31;13.60;99.90
57242;DHT22;43095;53.302;5.786;2022-09-09T02:20:26;13.60;99.90
57242;DHT22;43095;53.302;5.786;2022-09-09T02:23:19;13.50;99.90
57242;DHT22;43095;53.302;5.786;2022-09-09T02:26:12;13.50;99.90
57242;DHT22;43095;53.302;5.786;2022-09-09T02:29:02;13.50;99.90
57242;DHT22;43095;53.302;5.786;2022-09-09T02:31:51;13.50;99.90
57242;DHT22;43095;53.302;5.786;2022-09-09T02:34:45;13.50;99.90
57242;DHT22;43095;53.302;5.786;2022-09-09T02:37:37;13.60;99.90
57242;DHT22;43095;53.302;5.786;2022-09-09T02:40:23;13.60;99.90
57242;DHT22;43095;53.302;5.786;2022-09-09T02:43:16;13.60;99.90
57242;DHT22;43095;53.302;5.786;2022-09-09T02:49:09;13.60;99.90
57242;DHT22;43095;53.302;5.786;2022-09-09T02:52:04;13.60;99.90
57242;DHT22;43095;53.302;5.786;2022-09-09T02:54:59;13.50;99.90
57242;DHT22;43095;53.302;5.786;2022-09-09T02:57:47;13.60;99.90
57242;DHT22;43095;53.302;5.786;2022-09-09T03:00:35;13.60;99.90
57242;DHT22;43095;53.302;5.786;2022-09-09T03:03:21;13.60;99.90
57242;DHT22;43095;53.302;5.786;2022-09-09T03:06:09;13.50;99.90
57242;DHT22;43095;53.302;5.786;2022-09-09T03:08:55;13.50;99.90
57242;DHT22;43095;53.302;5.786;2022-09-09T03:11:44;13.50;99.90
57242;DHT22;43095;53.302;5.786;2022-09-09T03:14:31;13.50;99.90
57242;DHT22;43095;53.302;5.786;2022-09-09T03:17:17;13.50;99.90
57242;DHT22;43095;53.302;5.786;2022-09-09T03:20:09;13.50;99.90
57242;DHT22;43095;53.302;5.786;2022-09-09T03:22:56;13.50;99.90
57242;DHT22;43095;53.302;5.786;2022-09-09T03:25:49;13.50;99.90
57242;DHT22;43095;53.302;5.786;2022-09-09T03:28:42;13.50;99.90
57242;DHT22;43095;53.302;5.786;2022-09-09T03:31:29;13.40;99.90
57242;DHT22;43095;53.302;5.786;2022-09-09T03:34:16;13.40;99.90
57242;DHT22;43095;53.302;5.786;2022-09-09T03:37:02;13.40;99.90
57242;DHT22;43095;53.302;5.786;2022-09-09T03:39:48;13.40;99.90
57242;DHT22;43095;53.302;5.786;2022-09-09T03:42:35;13.40;99.90
57242;DHT22;43095;53.302;5.786;2022-09-09T03:45:22;13.40;99.90
57242;DHT22;43095;53.302;5.786;2022-09-09T03:48:08;13.30;99.90
57242;DHT22;43095;53.302;5.786;2022-09-09T03:50:56;13.30;99.90
57242;DHT22;43095;53.302;5.786;2022-09-09T03:53:44;13.30;99.90
57242;DHT22;43095;53.302;5.786;2022-09-09T03:56:30;13.30;99.90
57242;DHT22;43095;53.302;5.786;2022-09-09T03:59:17;13.40;99.90
57242;DHT22;43095;53.302;5.786;2022-09-09T04:02:04;13.40;99.90
57242;DHT22;43095;53.302;5.786;2022-09-09T04:04:49;13.40;99.90
57242;DHT22;43095;53.302;5.786;2022-09-09T04:07:35;13.40;99.90
57242;DHT22;43095;53.302;5.786;2022-09-09T04:10:21;13.50;99.90
57242;DHT22;43095;53.302;5.786;2022-09-09T04:13:07;13.50;99.90
57242;DHT22;43095;53.302;5.786;2022-09-09T04:15:58;13.50;99.90
57242;DHT22;43095;53.302;5.786;2022-09-09T04:18:45;13.60;99.90
57242;DHT22;43095;53.302;5.786;2022-09-09T04:21:33;13.60;99.90
57242;DHT22;43095;53.302;5.786;2022-09-09T04:24:20;13.60;99.90
57242;DHT22;43095;53.302;5.786;2022-09-09T04:27:07;13.60;99.90
57242;DHT22;43095;53.302;5.786;2022-09-09T04:29:54;13.70;99.90
57242;DHT22;43095;53.302;5.786;2022-09-09T04:32:44;13.70;99.90
57242;DHT22;43095;53.302;5.786;2022-09-09T04:35:29;13.60;99.90
57242;DHT22;43095;53.302;5.786;2022-09-09T04:38:16;13.60;99.90
57242;DHT22;43095;53.302;5.786;2022-09-09T04:41:03;13.60;99.90
57242;DHT22;43095;53.302;5.786;2022-09-09T04:43:50;13.60;99.90
57242;DHT22;43095;53.302;5.786;2022-09-09T04:46:35;13.60;99.90
57242;DHT22;43095;53.302;5.786;2022-09-09T04:49:22;13.60;99.90
57242;DHT22;43095;53.302;5.786;2022-09-09T04:52:09;13.50;99.90
57242;DHT22;43095;53.302;5.786;2022-09-09T04:54:55;13.50;99.90
57242;DHT22;43095;53.302;5.786;2022-09-09T04:57:40;13.50;99.90
57242;DHT22;43095;53.302;5.786;2022-09-09T05:00:29;13.50;99.90
57242;DHT22;43095;53.302;5.786;2022-09-09T05:03:14;13.60;99.90
57242;DHT22;43095;53.302;5.786;2022-09-09T05:06:09;13.60;99.90
57242;DHT22;43095;53.302;5.786;2022-09-09T05:08:55;13.60;99.90
57242;DHT22;43095;53.302;5.786;2022-09-09T05:11:43;13.60;99.90
57242;DHT22;43095;53.302;5.786;2022-09-09T05:14:46;13.60;99.90
57242;DHT22;43095;53.302;5.786;2022-09-09T05:17:32;13.70;99.90
57242;DHT22;43095;53.302;5.786;2022-09-09T05:20:19;13.70;99.90
57242;DHT22;43095;53.302;5.786;2022-09-09T05:23:04;13.70;99.90
57242;DHT22;43095;53.302;5.786;2022-09-09T05:25:58;13.70;99.90
57242;DHT22;43095;53.302;5.786;2022-09-09T05:28:44;13.80;99.90
57242;DHT22;43095;53.302;5.786;2022-09-09T05:31:30;13.80;99.90
57242;DHT22;43095;53.302;5.786;2022-09-09T05:34:20;13.80;99.90
57242;DHT22;43095;53.302;5.786;2022-09-09T05:37:07;13.80;99.90
57242;DHT22;43095;53.302;5.786;2022-09-09T05:39:54;13.90;99.90
57242;DHT22;43095;53.302;5.786;2022-09-09T05:42:41;13.90;99.90
57242;DHT22;43095;53.302;5.786;2022-09-09T05:45:27;14.00;99.90
57242;DHT22;43095;53.302;5.786;2022-09-09T05:48:16;14.00;99.90
57242;DHT22;43095;53.302;5.786;2022-09-09T05:51:04;14.00;99.90
57242;DHT22;43095;53.302;5.786;2022-09-09T05:53:50;14.10;99.90
57242;DHT22;43095;53.302;5.786;2022-09-09T05:56:37;14.10;99.90
57242;DHT22;43095;53.302;5.786;2022-09-09T05:59:25;14.10;99.90
57242;DHT22;43095;53.302;5.786;2022-09-09T06:02:13;14.20;99.90
57242;DHT22;43095;53.302;5.786;2022-09-09T06:05:00;14.20;99.90
57242;DHT22;43095;53.302;5.786;2022-09-09T06:07:46;14.30;99.90
57242;DHT22;43095;53.302;5.786;2022-09-09T06:10:33;14.30;99.90
57242;DHT22;43095;53.302;5.786;2022-09-09T06:13:19;14.30;99.90
57242;DHT22;43095;53.302;5.786;2022-09-09T06:16:16;14.30;99.90
57242;DHT22;43095;53.302;5.786;2022-09-09T06:19:02;14.30;99.90
57242;DHT22;43095;53.302;5.786;2022-09-09T06:21:52;14.40;99.90
57242;DHT22;43095;53.302;5.786;2022-09-09T06:24:37;14.40;99.90
57242;DHT22;43095;53.302;5.786;2022-09-09T06:27:24;14.40;99.90
57242;DHT22;43095;53.302;5.786;2022-09-09T06:30:10;14.50;99.90
57242;DHT22;43095;53.302;5.786;2022-09-09T06:32:56;14.50;99.90
57242;DHT22;43095;53.302;5.786;2022-09-09T06:35:51;14.60;99.90
57242;DHT22;43095;53.302;5.786;2022-09-09T06:38:39;14.60;99.90
57242;DHT22;43095;53.302;5.786;2022-09-09T06:41:27;14.70;99.90
57242;DHT22;43095;53.302;5.786;2022-09-09T06:44:14;14.70;99.90
57242;DHT22;43095;53.302;5.786;2022-09-09T06:47:00;14.70;99.90
57242;DHT22;43095;53.302;5.786;2022-09-09T06:49:46;14.70;99.90
57242;DHT22;43095;53.302;5.786;2022-09-09T06:52:34;14.80;99.90
57242;DHT22;43095;53.302;5.786;2022-09-09T06:55:20;14.90;99.90
57242;DHT22;43095;53.302;5.786;2022-09-09T06:58:09;14.90;99.90
57242;DHT22;43095;53.302;5.786;2022-09-09T07:01:06;14.90;99.90
57242;DHT22;43095;53.302;5.786;2022-09-09T07:03:54;15.00;99.90
57242;DHT22;43095;53.302;5.786;2022-09-09T07:06:44;15.00;99.90
57242;DHT22;43095;53.302;5.786;2022-09-09T07:09:38;15.10;99.90
57242;DHT22;43095;53.302;5.786;2022-09-09T07:12:23;15.20;99.90
57242;DHT22;43095;53.302;5.786;2022-09-09T07:15:14;15.20;99.90
57242;DHT22;43095;53.302;5.786;2022-09-09T07:18:03;15.30;99.90
57242;DHT22;43095;53.302;5.786;2022-09-09T07:20:53;15.40;99.90
57242;DHT22;43095;53.302;5.786;2022-09-09T07:23:41;15.40;99.90
57242;DHT22;43095;53.302;5.786;2022-09-09T07:26:30;15.40;99.90
57242;DHT22;43095;53.302;5.786;2022-09-09T07:29:18;15.40;99.90
57242;DHT22;43095;53.302;5.786;2022-09-09T07:32:06;15.50;99.90
57242;DHT22;43095;53.302;5.786;2022-09-09T07:34:55;15.50;99.90
57242;DHT22;43095;53.302;5.786;2022-09-09T07:37:41;15.50;99.90
57242;DHT22;43095;53.302;5.786;2022-09-09T07:40:30;15.60;99.90
57242;DHT22;43095;53.302;5.786;2022-09-09T07:43:16;15.60;99.90
57242;DHT22;43095;53.302;5.786;2022-09-09T07:46:04;15.50;99.90
57242;DHT22;43095;53.302;5.786;2022-09-09T07:48:53;15.60;99.90
57242;DHT22;43095;53.302;5.786;2022-09-09T07:51:45;15.60;99.90
57242;DHT22;43095;53.302;5.786;2022-09-09T07:54:32;15.60;99.90
57242;DHT22;43095;53.302;5.786;2022-09-09T07:57:20;15.60;99.90
57242;DHT22;43095;53.302;5.786;2022-09-09T08:00:08;15.60;99.90
57242;DHT22;43095;53.302;5.786;2022-09-09T08:03:01;15.70;99.90
57242;DHT22;43095;53.302;5.786;2022-09-09T08:05:47;15.70;99.90
57242;DHT22;43095;53.302;5.786;2022-09-09T08:08:37;15.70;99.90
57242;DHT22;43095;53.302;5.786;2022-09-09T08:11:27;15.70;99.90
57242;DHT22;43095;53.302;5.786;2022-09-09T08:14:13;15.80;99.90
57242;DHT22;43095;53.302;5.786;2022-09-09T08:16:59;15.90;99.90
57242;DHT22;43095;53.302;5.786;2022-09-09T08:19:46;15.90;99.90
57242;DHT22;43095;53.302;5.786;2022-09-09T08:22:37;16.00;99.90
57242;DHT22;43095;53.302;5.786;2022-09-09T08:25:23;16.10;99.90
57242;DHT22;43095;53.302;5.786;2022-09-09T08:28:10;16.10;99.90
57242;DHT22;43095;53.302;5.786;2022-09-09T08:31:14;16.20;99.90
57242;DHT22;43095;53.302;5.786;2022-09-09T08:34:01;16.30;99.90
57242;DHT22;43095;53.302;5.786;2022-09-09T08:36:51;16.40;99.90
57242;DHT22;43095;53.302;5.786;2022-09-09T08:39:41;16.50;99.90
57242;DHT22;43095;53.302;5.786;2022-09-09T08:42:55;16.60;99.90
57242;DHT22;43095;53.302;5.786;2022-09-09T08:45:49;16.60;99.90
57242;DHT22;43095;53.302;5.786;2022-09-09T08:52:19;16.70;99.90
57242;DHT22;43095;53.302;5.786;2022-09-09T08:58:23;16.80;99.90
57242;DHT22;43095;53.302;5.786;2022-09-09T09:10:09;16.90;99.90
57242;DHT22;43095;53.302;5.786;2022-09-09T09:13:22;17.00;99.90
57242;DHT22;43095;53.302;5.786;2022-09-09T09:16:25;17.10;99.90
57242;DHT22;43095;53.302;5.786;2022-09-09T09:19:14;17.20;99.90
57242;DHT22;43095;53.302;5.786;2022-09-09T09:25:22;17.30;99.90
57242;DHT22;43095;53.302;5.786;2022-09-09T09:28:24;17.40;99.90
57242;DHT22;43095;53.302;5.786;2022-09-09T09:31:15;17.40;99.90
57242;DHT22;43095;53.302;5.786;2022-09-09T09:34:04;17.40;99.90
57242;DHT22;43095;53.302;5.786;2022-09-09T09:36:54;17.30;99.90
57242;DHT22;43095;53.302;5.786;2022-09-09T09:39:41;17.30;99.90
57242;DHT22;43095;53.302;5.786;2022-09-09T09:45:44;17.40;99.90
57242;DHT22;43095;53.302;5.786;2022-09-09T09:48:57;17.50;99.90
57242;DHT22;43095;53.302;5.786;2022-09-09T09:51:44;17.60;99.90
57242;DHT22;43095;53.302;5.786;2022-09-09T09:54:38;17.60;99.90
57242;DHT22;43095;53.302;5.786;2022-09-09T09:57:29;17.60;99.90
57242;DHT22;43095;53.302;5.786;2022-09-09T10:00:19;17.60;99.90
57242;DHT22;43095;53.302;5.786;2022-09-09T10:03:29;17.70;99.90
57242;DHT22;43095;53.302;5.786;2022-09-09T10:06:16;17.80;99.90
57242;DHT22;43095;53.302;5.786;2022-09-09T10:09:04;17.80;99.90
57242;DHT22;43095;53.302;5.786;2022-09-09T10:21:41;18.20;99.90
57242;DHT22;43095;53.302;5.786;2022-09-09T10:33:37;18.30;99.90
57242;DHT22;43095;53.302;5.786;2022-09-09T10:36:28;18.40;99.90
57242;DHT22;43095;53.302;5.786;2022-09-09T10:42:16;18.70;99.90
57242;DHT22;43095;53.302;5.786;2022-09-09T10:45:20;18.80;99.90
57242;DHT22;43095;53.302;5.786;2022-09-09T10:51:40;19.20;99.90
57242;DHT22;43095;53.302;5.786;2022-09-09T10:57:50;19.80;99.90
57242;DHT22;43095;53.302;5.786;2022-09-09T11:00:49;19.80;99.90
57242;DHT22;43095;53.302;5.786;2022-09-09T11:03:43;19.80;99.90
57242;DHT22;43095;53.302;5.786;2022-09-09T11:06:39;19.90;99.90
57242;DHT22;43095;53.302;5.786;2022-09-09T11:09:32;20.00;99.90
57242;DHT22;43095;53.302;5.786;2022-09-09T11:12:22;20.10;99.90
57242;DHT22;43095;53.302;5.786;2022-09-09T11:15:20;20.30;99.90
57242;DHT22;43095;53.302;5.786;2022-09-09T11:18:11;20.30;99.90
57242;DHT22;43095;53.302;5.786;2022-09-09T11:21:00;20.40;99.90
57242;DHT22;43095;53.302;5.786;2022-09-09T11:23:57;20.50;99.90
57242;DHT22;43095;53.302;5.786;2022-09-09T11:26:55;20.70;99.90
57242;DHT22;43095;53.302;5.786;2022-09-09T11:30:12;20.60;99.90
57242;DHT22;43095;53.302;5.786;2022-09-09T11:33:41;20.50;99.90
57242;DHT22;43095;53.302;5.786;2022-09-09T11:36:36;20.40;99.90
57242;DHT22;43095;53.302;5.786;2022-09-09T11:42:21;20.80;99.90
57242;DHT22;43095;53.302;5.786;2022-09-09T11:45:15;20.60;99.90
57242;DHT22;43095;53.302;5.786;2022-09-09T11:48:04;20.70;99.90
57242;DHT22;43095;53.302;5.786;2022-09-09T11:51:03;21.00;99.90
57242;DHT22;43095;53.302;5.786;2022-09-09T11:53:56;21.20;99.90
57242;DHT22;43095;53.302;5.786;2022-09-09T11:56:45;21.20;99.90
57242;DHT22;43095;53.302;5.786;2022-09-09T11:59:32;21.50;99.90
57242;DHT22;43095;53.302;5.786;2022-09-09T12:02:23;22.00;99.90
57242;DHT22;43095;53.302;5.786;2022-09-09T12:05:13;22.20;99.90
57242;DHT22;43095;53.302;5.786;2022-09-09T12:08:02;22.10;99.90
57242;DHT22;43095;53.302;5.786;2022-09-09T12:10:57;21.70;99.90
57242;DHT22;43095;53.302;5.786;2022-09-09T12:13:53;21.70;99.90
57242;DHT22;43095;53.302;5.786;2022-09-09T12:16:39;21.60;99.90
57242;DHT22;43095;53.302;5.786;2022-09-09T12:19:25;21.70;99.90
57242;DHT22;43095;53.302;5.786;2022-09-09T12:25:53;21.50;99.90
57242;DHT22;43095;53.302;5.786;2022-09-09T12:37:50;20.80;99.90
57242;DHT22;43095;53.302;5.786;2022-09-09T12:40:39;20.50;99.90
57242;DHT22;43095;53.302;5.786;2022-09-09T12:43:26;20.30;99.90
57242;DHT22;43095;53.302;5.786;2022-09-09T12:46:30;20.20;99.90
57242;DHT22;43095;53.302;5.786;2022-09-09T12:49:38;20.40;99.90
57242;DHT22;43095;53.302;5.786;2022-09-09T12:52:31;20.50;99.90
57242;DHT22;43095;53.302;5.786;2022-09-09T12:55:21;20.60;99.90
57242;DHT22;43095;53.302;5.786;2022-09-09T12:58:13;20.50;99.90
57242;DHT22;43095;53.302;5.786;2022-09-09T13:01:02;20.50;99.90
57242;DHT22;43095;53.302;5.786;2022-09-09T13:03:50;20.50;99.90
57242;DHT22;43095;53.302;5.786;2022-09-09T13:06:36;20.70;99.90
57242;DHT22;43095;53.302;5.786;2022-09-09T13:09:21;20.80;99.90
57242;DHT22;43095;53.302;5.786;2022-09-09T13:12:29;20.90;99.90
57242;DHT22;43095;53.302;5.786;2022-09-09T13:15:26;21.40;99.90
57242;DHT22;43095;53.302;5.786;2022-09-09T13:18:13;21.60;99.90
57242;DHT22;43095;53.302;5.786;2022-09-09T13:20:59;22.00;99.90
57242;DHT22;43095;53.302;5.786;2022-09-09T13:23:50;22.00;99.90
57242;DHT22;43095;53.302;5.786;2022-09-09T13:26:35;22.00;99.90
57242;DHT22;43095;53.302;5.786;2022-09-09T13:29:22;21.80;99.90
57242;DHT22;43095;53.302;5.786;2022-09-09T13:32:19;21.90;99.90
57242;DHT22;43095;53.302;5.786;2022-09-09T13:35:23;22.10;99.90
57242;DHT22;43095;53.302;5.786;2022-09-09T13:38:09;21.90;99.90
57242;DHT22;43095;53.302;5.786;2022-09-09T13:41:02;21.50;99.90
57242;DHT22;43095;53.302;5.786;2022-09-09T13:43:50;21.30;99.90
57242;DHT22;43095;53.302;5.786;2022-09-09T13:46:40;21.00;99.90
57242;DHT22;43095;53.302;5.786;2022-09-09T13:49:29;21.30;99.90
57242;DHT22;43095;53.302;5.786;2022-09-09T13:52:17;21.50;99.90
57242;DHT22;43095;53.302;5.786;2022-09-09T13:55:04;21.30;99.90
57242;DHT22;43095;53.302;5.786;2022-09-09T13:57:54;21.60;99.90
57242;DHT22;43095;53.302;5.786;2022-09-09T14:00:40;21.40;99.90
57242;DHT22;43095;53.302;5.786;2022-09-09T14:03:27;21.20;99.90
57242;DHT22;43095;53.302;5.786;2022-09-09T14:06:12;21.00;99.90
57242;DHT22;43095;53.302;5.786;2022-09-09T14:08:59;20.80;99.90
57242;DHT22;43095;53.302;5.786;2022-09-09T14:11:45;20.90;99.90
57242;DHT22;43095;53.302;5.786;2022-09-09T14:14:31;20.80;99.90
57242;DHT22;43095;53.302;5.786;2022-09-09T14:17:17;20.90;99.90
57242;DHT22;43095;53.302;5.786;2022-09-09T14:20:03;21.10;99.90
57242;DHT22;43095;53.302;5.786;2022-09-09T14:22:53;21.30;99.90
57242;DHT22;43095;53.302;5.786;2022-09-09T14:25:45;21.90;99.90
57242;DHT22;43095;53.302;5.786;2022-09-09T14:28:32;22.40;99.90
57242;DHT22;43095;53.302;5.786;2022-09-09T14:31:38;22.90;99.90
57242;DHT22;43095;53.302;5.786;2022-09-09T14:34:23;23.60;99.90
57242;DHT22;43095;53.302;5.786;2022-09-09T14:37:09;23.70;99.90
57242;DHT22;43095;53.302;5.786;2022-09-09T14:39:54;23.50;99.90
57242;DHT22;43095;53.302;5.786;2022-09-09T14:42:41;24.00;99.90
57242;DHT22;43095;53.302;5.786;2022-09-09T14:45:27;24.20;99.90
57242;DHT22;43095;53.302;5.786;2022-09-09T14:48:13;24.10;99.90
57242;DHT22;43095;53.302;5.786;2022-09-09T14:51:18;23.40;99.90
57242;DHT22;43095;53.302;5.786;2022-09-09T14:54:05;22.90;99.90
57242;DHT22;43095;53.302;5.786;2022-09-09T14:56:50;22.60;99.90
57242;DHT22;43095;53.302;5.786;2022-09-09T14:59:36;22.30;99.90
57242;DHT22;43095;53.302;5.786;2022-09-09T15:02:21;22.20;99.90
57242;DHT22;43095;53.302;5.786;2022-09-09T15:05:08;22.00;99.90
57242;DHT22;43095;53.302;5.786;2022-09-09T15:07:54;21.80;99.90
57242;DHT22;43095;53.302;5.786;2022-09-09T15:10:39;21.30;99.90
57242;DHT22;43095;53.302;5.786;2022-09-09T15:13:25;21.00;99.90
57242;DHT22;43095;53.302;5.786;2022-09-09T15:16:13;20.90;99.90
57242;DHT22;43095;53.302;5.786;2022-09-09T15:19:00;20.60;99.90
57242;DHT22;43095;53.302;5.786;2022-09-09T15:21:46;20.40;99.90
57242;DHT22;43095;53.302;5.786;2022-09-09T15:24:33;20.10;99.90
57242;DHT22;43095;53.302;5.786;2022-09-09T15:27:19;19.80;99.90
57242;DHT22;43095;53.302;5.786;2022-09-09T15:30:04;19.60;99.90
57242;DHT22;43095;53.302;5.786;2022-09-09T15:32:50;19.40;99.90
57242;DHT22;43095;53.302;5.786;2022-09-09T15:35:38;19.30;99.90
57242;DHT22;43095;53.302;5.786;2022-09-09T15:38:23;19.20;99.90
57242;DHT22;43095;53.302;5.786;2022-09-09T15:41:11;19.00;99.90
57242;DHT22;43095;53.302;5.786;2022-09-09T15:43:57;18.90;99.90
57242;DHT22;43095;53.302;5.786;2022-09-09T15:46:51;18.70;99.90
57242;DHT22;43095;53.302;5.786;2022-09-09T15:49:40;18.70;99.90
57242;DHT22;43095;53.302;5.786;2022-09-09T15:52:26;18.60;99.90
57242;DHT22;43095;53.302;5.786;2022-09-09T15:55:11;18.60;99.90
57242;DHT22;43095;53.302;5.786;2022-09-09T15:57:57;18.60;99.90
57242;DHT22;43095;53.302;5.786;2022-09-09T16:00:43;18.60;99.90
57242;DHT22;43095;53.302;5.786;2022-09-09T16:03:34;18.50;99.90
57242;DHT22;43095;53.302;5.786;2022-09-09T16:06:28;18.50;99.90
57242;DHT22;43095;53.302;5.786;2022-09-09T16:09:14;18.50;99.90
57242;DHT22;43095;53.302;5.786;2022-09-09T16:12:00;18.40;99.90
57242;DHT22;43095;53.302;5.786;2022-09-09T16:14:47;18.30;99.90
57242;DHT22;43095;53.302;5.786;2022-09-09T16:17:32;18.30;99.90
57242;DHT22;43095;53.302;5.786;2022-09-09T16:20:22;18.20;99.90
57242;DHT22;43095;53.302;5.786;2022-09-09T16:23:08;18.20;99.90
57242;DHT22;43095;53.302;5.786;2022-09-09T16:25:55;18.20;99.90
57242;DHT22;43095;53.302;5.786;2022-09-09T16:28:41;18.20;99.90
57242;DHT22;43095;53.302;5.786;2022-09-09T16:31:27;18.30;99.90
57242;DHT22;43095;53.302;5.786;2022-09-09T16:34:15;18.30;99.90
57242;DHT22;43095;53.302;5.786;2022-09-09T16:37:01;18.30;99.90
57242;DHT22;43095;53.302;5.786;2022-09-09T16:39:47;18.20;99.90
57242;DHT22;43095;53.302;5.786;2022-09-09T16:42:32;18.20;99.90
57242;DHT22;43095;53.302;5.786;2022-09-09T16:45:23;18.10;99.90
57242;DHT22;43095;53.302;5.786;2022-09-09T16:48:09;18.10;99.90
57242;DHT22;43095;53.302;5.786;2022-09-09T16:51:04;18.10;99.90
57242;DHT22;43095;53.302;5.786;2022-09-09T16:53:51;18.10;99.90
57242;DHT22;43095;53.302;5.786;2022-09-09T16:56:39;18.00;99.90
57242;DHT22;43095;53.302;5.786;2022-09-09T16:59:28;18.00;99.90
57242;DHT22;43095;53.302;5.786;2022-09-09T17:02:13;17.90;99.90
57242;DHT22;43095;53.302;5.786;2022-09-09T17:04:59;17.80;99.90
57242;DHT22;43095;53.302;5.786;2022-09-09T17:07:44;17.80;99.90
57242;DHT22;43095;53.302;5.786;2022-09-09T17:10:30;17.80;99.90
57242;DHT22;43095;53.302;5.786;2022-09-09T17:13:16;17.80;99.90
57242;DHT22;43095;53.302;5.786;2022-09-09T17:16:05;17.80;99.90
57242;DHT22;43095;53.302;5.786;2022-09-09T17:18:51;17.80;99.90
57242;DHT22;43095;53.302;5.786;2022-09-09T17:21:37;17.80;99.90
57242;DHT22;43095;53.302;5.786;2022-09-09T17:24:43;17.90;99.90
57242;DHT22;43095;53.302;5.786;2022-09-09T17:27:29;17.90;99.90
57242;DHT22;43095;53.302;5.786;2022-09-09T17:30:18;17.90;99.90
57242;DHT22;43095;53.302;5.786;2022-09-09T17:33:05;17.90;99.90
57242;DHT22;43095;53.302;5.786;2022-09-09T17:35:52;17.80;99.90
57242;DHT22;43095;53.302;5.786;2022-09-09T17:38:38;17.80;99.90
57242;DHT22;43095;53.302;5.786;2022-09-09T17:41:44;17.60;99.90
57242;DHT22;43095;53.302;5.786;2022-09-09T17:44:31;17.50;99.90
57242;DHT22;43095;53.302;5.786;2022-09-09T17:47:17;17.30;99.90
57242;DHT22;43095;53.302;5.786;2022-09-09T17:50:03;17.20;99.90
57242;DHT22;43095;53.302;5.786;2022-09-09T17:52:49;17.20;99.90
57242;DHT22;43095;53.302;5.786;2022-09-09T17:55:34;17.20;99.90
57242;DHT22;43095;53.302;5.786;2022-09-09T17:58:20;17.10;99.90
57242;DHT22;43095;53.302;5.786;2022-09-09T18:01:18;17.10;99.90
57242;DHT22;43095;53.302;5.786;2022-09-09T18:04:06;17.10;99.90
57242;DHT22;43095;53.302;5.786;2022-09-09T18:06:53;17.00;99.90
57242;DHT22;43095;53.302;5.786;2022-09-09T18:09:39;17.00;99.90
57242;DHT22;43095;53.302;5.786;2022-09-09T18:12:24;16.90;99.90
57242;DHT22;43095;53.302;5.786;2022-09-09T18:15:12;16.80;99.90
57242;DHT22;43095;53.302;5.786;2022-09-09T18:18:05;16.80;99.90
57242;DHT22;43095;53.302;5.786;2022-09-09T18:21:02;16.70;99.90
57242;DHT22;43095;53.302;5.786;2022-09-09T18:23:48;16.70;99.90
57242;DHT22;43095;53.302;5.786;2022-09-09T18:26:37;16.70;99.90
57242;DHT22;43095;53.302;5.786;2022-09-09T18:29:24;16.70;99.90
57242;DHT22;43095;53.302;5.786;2022-09-09T18:32:10;16.70;99.90
57242;DHT22;43095;53.302;5.786;2022-09-09T18:34:56;16.70;99.90
57242;DHT22;43095;53.302;5.786;2022-09-09T18:37:46;16.70;99.90
57242;DHT22;43095;53.302;5.786;2022-09-09T18:40:32;16.70;99.90
57242;DHT22;43095;53.302;5.786;2022-09-09T18:43:17;16.70;99.90
57242;DHT22;43095;53.302;5.786;2022-09-09T18:46:04;16.70;99.90
57242;DHT22;43095;53.302;5.786;2022-09-09T18:48:50;16.70;99.90
57242;DHT22;43095;53.302;5.786;2022-09-09T18:51:37;16.70;99.90
57242;DHT22;43095;53.302;5.786;2022-09-09T18:54:27;16.70;99.90
57242;DHT22;43095;53.302;5.786;2022-09-09T18:57:14;16.70;99.90
57242;DHT22;43095;53.302;5.786;2022-09-09T19:00:00;16.60;99.90
57242;DHT22;43095;53.302;5.786;2022-09-09T19:02:48;16.50;99.90
57242;DHT22;43095;53.302;5.786;2022-09-09T19:05:36;16.50;99.90
57242;DHT22;43095;53.302;5.786;2022-09-09T19:08:21;16.50;99.90
57242;DHT22;43095;53.302;5.786;2022-09-09T19:11:08;16.40;99.90
57242;DHT22;43095;53.302;5.786;2022-09-09T19:13:57;16.40;99.90
57242;DHT22;43095;53.302;5.786;2022-09-09T19:16:44;16.30;99.90
57242;DHT22;43095;53.302;5.786;2022-09-09T19:19:31;16.30;99.90
57242;DHT22;43095;53.302;5.786;2022-09-09T19:22:17;16.30;99.90
57242;DHT22;43095;53.302;5.786;2022-09-09T19:25:03;16.30;99.90
57242;DHT22;43095;53.302;5.786;2022-09-09T19:27:49;16.30;99.90
57242;DHT22;43095;53.302;5.786;2022-09-09T19:30:34;16.30;99.90
57242;DHT22;43095;53.302;5.786;2022-09-09T19:33:21;16.30;99.90
57242;DHT22;43095;53.302;5.786;2022-09-09T19:36:07;16.30;99.90
57242;DHT22;43095;53.302;5.786;2022-09-09T19:38:54;16.30;99.90